Time;durP1;ratioP1;P1;durP2;ratioP2;P2;SDS_P1;SDS_P2;PMS_P1;PMS_P2;Temp;Humidity;BMP_temperature;BMP_pressure;BME280_temperature;BME280_humidity;BME280_pressure;Samples;Min_cycle;Max_cycle;Signal;HPM_P1;HPM_P2
2021/01/16 00:00:26;;;;;;;25.33;13.18;;;-2.50;99.90;;;;;;5022340;28;20577;-50
2021/01/16 00:02:52;;;;;;;25.10;13.00;;;-2.40;99.90;;;;;;5017940;28;20801;-50
2021/01/16 00:05:19;;;;;;;30.27;13.25;;;-2.40;99.90;;;;;;5026304;28;20132;-48
2021/01/16 00:07:46;;;;;;;25.63;13.07;;;-2.50;99.90;;;;;;5026786;28;20045;-50
2021/01/16 00:10:16;;;;;;;25.50;13.57;;;-2.40;99.90;;;;;;5026494;28;20060;-52
2021/01/16 00:12:50;;;;;;;26.63;13.63;;;-2.50;99.90;;;;;;5026649;28;20041;-53
2021/01/16 00:15:16;;;;;;;132.57;56.72;;;-2.60;99.90;;;;;;5027293;28;20452;-51
2021/01/16 00:17:43;;;;;;;58.25;25.23;;;-2.60;99.90;;;;;;5045854;28;20052;-51
2021/01/16 00:20:10;;;;;;;52.03;25.60;;;-2.50;99.90;;;;;;5041922;28;20092;-50
2021/01/16 00:22:45;;;;;;;32.63;15.82;;;-2.40;99.90;;;;;;5027306;28;20041;-50
2021/01/16 00:25:11;;;;;;;36.45;17.92;;;-2.40;99.90;;;;;;5024948;28;20099;-52
2021/01/16 00:27:37;;;;;;;26.52;13.02;;;-2.20;99.90;;;;;;5025544;28;20033;-50
2021/01/16 00:30:05;;;;;;;23.08;12.30;;;-2.20;99.90;;;;;;5042962;28;20052;-47
2021/01/16 00:32:31;;;;;;;25.00;12.02;;;-2.40;99.90;;;;;;5045832;28;20048;-49
2021/01/16 00:34:56;;;;;;;30.83;15.10;;;-2.30;99.90;;;;;;5040195;28;20045;-49
2021/01/16 00:37:22;;;;;;;35.03;17.58;;;-2.20;99.90;;;;;;5025539;28;20544;-53
2021/01/16 00:39:47;;;;;;;51.83;24.33;;;-2.30;99.90;;;;;;5025739;28;20049;-50
2021/01/16 00:42:13;;;;;;;37.83;16.27;;;-2.30;99.90;;;;;;5026133;28;20112;-51
2021/01/16 00:44:38;;;;;;;24.38;12.30;;;-2.20;99.90;;;;;;5026571;28;20032;-51
2021/01/16 00:47:04;;;;;;;25.98;12.80;;;-2.10;99.90;;;;;;5025602;28;20128;-50
2021/01/16 00:49:29;;;;;;;25.83;12.85;;;-2.10;99.90;;;;;;5026177;28;20540;-49
2021/01/16 00:51:55;;;;;;;44.20;19.38;;;-2.20;99.90;;;;;;5026539;28;20037;-47
2021/01/16 00:54:20;;;;;;;33.60;16.13;;;-2.10;99.90;;;;;;5026323;28;20048;-48
2021/01/16 00:56:46;;;;;;;26.98;12.48;;;-2.00;99.90;;;;;;5008627;28;20050;-51
2021/01/16 00:59:11;;;;;;;24.85;12.93;;;-2.00;99.90;;;;;;5007035;28;20038;-49
2021/01/16 01:01:39;;;;;;;23.42;11.50;;;-2.10;99.90;;;;;;5004410;28;20137;-52
2021/01/16 01:04:06;;;;;;;26.42;12.45;;;-2.20;99.90;;;;;;5006753;28;20037;-54
2021/01/16 01:06:32;;;;;;;27.52;12.95;;;-2.30;99.90;;;;;;5006777;28;20056;-57
2021/01/16 01:08:58;;;;;;;24.45;12.30;;;-2.50;99.90;;;;;;5018202;28;20124;-50
2021/01/16 01:11:23;;;;;;;29.75;13.82;;;-2.50;99.90;;;;;;5023511;28;20076;-55
2021/01/16 01:13:52;;;;;;;25.73;12.02;;;-2.50;99.90;;;;;;5025729;28;20039;-54
2021/01/16 01:16:18;;;;;;;21.58;10.77;;;-2.50;99.90;;;;;;5025245;28;20416;-49
2021/01/16 01:18:44;;;;;;;24.70;11.02;;;-2.60;99.90;;;;;;5026321;28;20045;-52
2021/01/16 01:21:09;;;;;;;26.58;11.35;;;-2.60;99.90;;;;;;5007442;28;20030;-51
2021/01/16 01:23:35;;;;;;;22.85;10.88;;;-2.70;99.90;;;;;;5006552;28;20383;-49
2021/01/16 01:26:00;;;;;;;21.77;10.18;;;-2.70;99.90;;;;;;5024705;28;20116;-50
2021/01/16 01:28:26;;;;;;;24.10;10.95;;;-2.60;99.90;;;;;;5025622;28;20041;-48
2021/01/16 01:30:51;;;;;;;21.95;9.75;;;-2.60;99.90;;;;;;5029602;28;20895;-51
2021/01/16 01:33:17;;;;;;;22.08;10.40;;;-2.70;99.90;;;;;;5045243;28;20095;-52
2021/01/16 01:35:46;;;;;;;26.30;10.57;;;-2.70;99.90;;;;;;5045101;28;20744;-50
2021/01/16 01:38:18;;;;;;;24.73;10.48;;;-2.80;99.90;;;;;;5044388;28;20452;-52
2021/01/16 01:40:45;;;;;;;25.92;11.93;;;-2.70;99.90;;;;;;5043324;28;20047;-48
2021/01/16 01:43:12;;;;;;;22.52;10.65;;;-2.80;99.90;;;;;;5044490;28;20037;-51
2021/01/16 01:45:37;;;;;;;23.85;11.02;;;-2.80;99.90;;;;;;5044286;28;20965;-52
2021/01/16 01:48:03;;;;;;;20.45;10.75;;;-2.80;99.90;;;;;;5043863;28;20140;-49
2021/01/16 01:50:29;;;;;;;20.45;10.00;;;-2.80;99.90;;;;;;5045086;28;20120;-52
2021/01/16 01:52:56;;;;;;;22.92;10.13;;;-2.70;99.90;;;;;;5044380;28;20405;-54
2021/01/16 01:55:22;;;;;;;23.02;10.23;;;-2.70;99.90;;;;;;5042958;28;20047;-48
2021/01/16 01:57:53;;;;;;;21.73;10.27;;;-2.60;99.90;;;;;;5044997;28;20048;-50
2021/01/16 02:00:21;;;;;;;20.33;10.27;;;-2.70;99.90;;;;;;5042857;28;20072;-49
2021/01/16 02:02:47;;;;;;;24.90;11.63;;;-2.60;99.90;;;;;;5032393;23;20131;-50
2021/01/16 02:05:13;;;;;;;21.27;10.50;;;-2.60;99.90;;;;;;5005208;28;20074;-49
2021/01/16 02:07:39;;;;;;;21.67;11.10;;;-2.60;99.90;;;;;;5001388;28;20041;-47
2021/01/16 02:10:22;;;;;;;23.00;11.77;;;-2.60;99.90;;;;;;4997608;28;20034;-48
2021/01/16 02:12:55;;;;;;;26.17;11.85;;;-2.80;99.90;;;;;;5003434;28;20509;-51
2021/01/16 02:15:24;;;;;;;29.70;12.98;;;-2.70;99.90;;;;;;5005144;28;20038;-46
2021/01/16 02:17:54;;;;;;;23.00;12.07;;;-2.70;99.90;;;;;;5004337;28;20042;-50
2021/01/16 02:20:33;;;;;;;24.30;12.10;;;-2.70;99.90;;;;;;5005645;28;20080;-50
2021/01/16 02:23:15;;;;;;;29.95;13.25;;;-2.80;99.90;;;;;;5004891;28;20046;-49
2021/01/16 02:25:40;;;;;;;26.80;12.60;;;-2.80;99.90;;;;;;5004005;28;20046;-51
2021/01/16 02:28:10;;;;;;;24.58;12.40;;;-2.90;99.90;;;;;;4990265;28;20052;-54
2021/01/16 02:30:38;;;;;;;27.60;12.80;;;-2.80;99.90;;;;;;5003629;28;20045;-51
2021/01/16 02:33:06;;;;;;;33.85;15.30;;;-2.80;99.90;;;;;;5002874;28;20045;-49
2021/01/16 02:35:36;;;;;;;28.92;13.40;;;-2.80;99.90;;;;;;5005119;28;20184;-48
2021/01/16 02:38:25;;;;;;;26.60;12.82;;;-2.90;99.90;;;;;;4994190;28;20441;-47
2021/01/16 02:40:56;;;;;;;32.63;15.55;;;-2.90;99.90;;;;;;4998725;28;20046;-53
2021/01/16 02:43:32;;;;;;;29.80;13.93;;;-2.80;99.90;;;;;;5004649;28;20041;-50
2021/01/16 02:46:15;;;;;;;28.35;13.30;;;-2.80;99.90;;;;;;5004671;28;20042;-53
2021/01/16 02:49:18;;;;;;;26.38;13.27;;;-2.80;99.90;;;;;;4997947;28;20072;-50
2021/01/16 02:52:08;;;;;;;31.17;13.52;;;-2.80;99.90;;;;;;4994704;28;20049;-53
2021/01/16 02:54:36;;;;;;;28.25;13.10;;;-2.70;99.90;;;;;;5005606;28;20056;-47
2021/01/16 02:57:10;;;;;;;30.95;14.52;;;-2.70;99.90;;;;;;5003623;28;20034;-51
2021/01/16 02:59:44;;;;;;;29.30;12.32;;;-2.70;99.90;;;;;;5005707;28;20053;-50
2021/01/16 03:02:13;;;;;;;29.70;12.75;;;-2.80;99.90;;;;;;5003958;28;20547;-52
2021/01/16 03:04:39;;;;;;;26.60;13.30;;;-2.80;99.90;;;;;;5005404;28;20038;-52
2021/01/16 03:07:07;;;;;;;25.63;12.23;;;-2.70;99.90;;;;;;4992124;28;20053;-54
2021/01/16 03:09:34;;;;;;;26.10;13.13;;;-2.70;99.90;;;;;;5005378;28;20120;-51
2021/01/16 03:12:04;;;;;;;25.10;12.05;;;-2.60;99.90;;;;;;5003956;28;20057;-52
2021/01/16 03:14:46;;;;;;;25.55;11.98;;;-2.50;99.90;;;;;;4999003;28;20050;-49
2021/01/16 03:17:14;;;;;;;24.33;11.93;;;-2.60;99.90;;;;;;5002990;28;20065;-50
2021/01/16 03:19:48;;;;;;;23.30;11.60;;;-2.60;99.90;;;;;;5004482;28;20732;-52
2021/01/16 03:22:26;;;;;;;23.60;11.48;;;-2.50;99.90;;;;;;5003043;28;20113;-50
2021/01/16 03:24:53;;;;;;;25.40;11.52;;;-2.50;99.90;;;;;;5003729;28;20533;-51
2021/01/16 03:27:20;;;;;;;24.88;11.68;;;-2.50;99.90;;;;;;5007497;28;20038;-53
2021/01/16 03:29:46;;;;;;;24.05;12.32;;;-2.60;99.90;;;;;;5008509;28;20046;-46
2021/01/16 03:32:12;;;;;;;24.83;10.77;;;-2.50;99.90;;;;;;4994652;28;20144;-47
2021/01/16 03:34:40;;;;;;;21.77;11.18;;;-2.50;99.90;;;;;;4989042;28;20065;-47
2021/01/16 03:37:07;;;;;;;22.95;11.13;;;-2.50;99.90;;;;;;4989715;28;20047;-51
2021/01/16 03:39:33;;;;;;;23.25;10.80;;;-2.50;99.90;;;;;;5008281;28;20453;-50
2021/01/16 03:41:59;;;;;;;28.55;11.13;;;-2.40;99.90;;;;;;5008202;28;20096;-46
2021/01/16 03:44:26;;;;;;;22.95;10.32;;;-2.40;99.90;;;;;;5001948;28;20034;-48
2021/01/16 03:46:51;;;;;;;23.10;10.13;;;-2.40;99.90;;;;;;4998042;28;20042;-50
2021/01/16 03:49:17;;;;;;;22.85;10.70;;;-2.40;99.90;;;;;;4988524;28;20452;-48
2021/01/16 03:51:43;;;;;;;21.60;10.82;;;-2.40;99.90;;;;;;4990256;28;20038;-47
2021/01/16 03:54:09;;;;;;;23.23;10.70;;;-2.40;99.90;;;;;;4989477;28;20046;-48
2021/01/16 03:56:35;;;;;;;21.77;9.57;;;-2.40;99.90;;;;;;4989335;28;20049;-51
2021/01/16 03:59:03;;;;;;;18.45;10.02;;;-2.40;99.90;;;;;;4989653;28;20038;-51
2021/01/16 04:01:32;;;;;;;21.00;9.63;;;-2.40;99.90;;;;;;4987199;28;20046;-49
2021/01/16 04:03:58;;;;;;;22.20;10.48;;;-2.40;99.90;;;;;;4995177;28;20038;-53
2021/01/16 04:06:46;;;;;;;24.95;10.85;;;-2.40;99.90;;;;;;5008019;28;20041;-49
2021/01/16 04:09:11;;;;;;;23.25;9.85;;;-2.30;99.90;;;;;;5002940;28;20049;-55
2021/01/16 04:11:37;;;;;;;20.75;10.45;;;-2.40;99.90;;;;;;5008013;28;20048;-48
2021/01/16 04:14:03;;;;;;;22.95;9.75;;;-2.30;99.90;;;;;;5002350;28;20073;-51
2021/01/16 04:16:29;;;;;;;17.70;9.25;;;-2.30;99.90;;;;;;4987145;28;20475;-53
2021/01/16 04:18:55;;;;;;;23.20;9.95;;;-2.30;99.90;;;;;;4987901;28;20043;-51
2021/01/16 04:21:21;;;;;;;16.65;8.93;;;-2.20;99.90;;;;;;5003895;28;20041;-46
2021/01/16 04:23:47;;;;;;;20.00;9.27;;;-2.20;99.90;;;;;;5004661;28;20500;-53
2021/01/16 04:26:12;;;;;;;20.08;9.10;;;-2.20;99.90;;;;;;4979554;28;20038;-53
2021/01/16 04:28:38;;;;;;;18.60;8.57;;;-2.30;99.90;;;;;;5007773;28;20057;-53
2021/01/16 04:31:05;;;;;;;16.55;8.25;;;-2.30;99.90;;;;;;5006720;28;20052;-49
2021/01/16 04:33:30;;;;;;;17.73;8.48;;;-2.30;99.90;;;;;;5007313;28;20046;-52
2021/01/16 04:35:56;;;;;;;18.90;8.75;;;-2.40;99.90;;;;;;5007753;28;20086;-48
2021/01/16 04:38:21;;;;;;;16.88;8.25;;;-2.40;99.90;;;;;;5006627;28;20042;-55
2021/01/16 04:40:47;;;;;;;14.90;7.47;;;-2.30;99.90;;;;;;5005112;28;20053;-50
2021/01/16 04:43:13;;;;;;;16.58;7.82;;;-2.30;99.90;;;;;;5007265;28;20036;-51
2021/01/16 04:45:40;;;;;;;16.85;8.10;;;-2.20;99.90;;;;;;5007574;28;20038;-48
2021/01/16 04:48:07;;;;;;;16.85;7.43;;;-2.20;99.90;;;;;;5007597;28;20050;-50
2021/01/16 04:50:37;;;;;;;17.15;7.53;;;-2.20;99.90;;;;;;5007389;28;20049;-52
2021/01/16 04:53:05;;;;;;;17.90;7.18;;;-2.30;99.90;;;;;;5007602;28;20317;-46
2021/01/16 04:55:32;;;;;;;15.85;7.18;;;-2.20;99.90;;;;;;5007699;28;20038;-49
2021/01/16 04:58:07;;;;;;;14.20;6.85;;;-2.30;99.90;;;;;;5007199;28;20044;-51
2021/01/16 05:00:35;;;;;;;14.55;6.90;;;-2.20;99.90;;;;;;5004004;28;20390;-51
2021/01/16 05:03:05;;;;;;;15.63;7.95;;;-2.30;99.90;;;;;;5006857;28;20048;-50
2021/01/16 05:05:31;;;;;;;15.88;7.45;;;-2.20;99.90;;;;;;5006718;28;20061;-52
2021/01/16 05:08:00;;;;;;;17.35;7.68;;;-2.20;99.90;;;;;;5006900;28;20652;-50
2021/01/16 05:10:34;;;;;;;12.90;6.95;;;-2.20;99.90;;;;;;5001445;28;20034;-49
2021/01/16 05:13:13;;;;;;;14.65;7.22;;;-2.20;99.90;;;;;;5006875;28;20099;-51
2021/01/16 05:15:40;;;;;;;14.60;6.75;;;-2.20;99.90;;;;;;5005611;28;20783;-47
2021/01/16 05:18:37;;;;;;;16.08;7.28;;;-2.20;99.90;;;;;;5006527;28;20053;-52
2021/01/16 05:21:02;;;;;;;13.20;7.17;;;-2.10;99.90;;;;;;4996278;28;20049;-47
2021/01/16 05:23:30;;;;;;;15.10;7.28;;;-2.10;99.90;;;;;;4997870;28;20049;-49
2021/01/16 05:25:55;;;;;;;13.75;7.00;;;-2.10;99.90;;;;;;5006206;28;20088;-50
2021/01/16 05:28:26;;;;;;;14.82;6.93;;;-2.10;99.90;;;;;;5005833;28;20068;-50
2021/01/16 05:31:11;;;;;;;15.35;7.15;;;-2.10;99.90;;;;;;4985970;28;20054;-52
2021/01/16 05:33:38;;;;;;;14.07;6.93;;;-2.20;99.90;;;;;;4986506;28;20093;-50
2021/01/16 05:36:09;;;;;;;13.90;6.95;;;-2.20;99.90;;;;;;4987749;28;20046;-50
2021/01/16 05:38:35;;;;;;;14.10;7.18;;;-2.10;99.90;;;;;;4997416;28;20042;-53
2021/01/16 05:41:04;;;;;;;13.10;6.60;;;-2.10;99.90;;;;;;5001252;28;20741;-56
2021/01/16 05:43:32;;;;;;;14.27;7.03;;;-2.00;99.90;;;;;;5005124;28;20045;-50
2021/01/16 05:45:59;;;;;;;12.48;6.28;;;-2.10;99.90;;;;;;5005787;28;20030;-53
2021/01/16 05:48:27;;;;;;;16.52;6.80;;;-2.00;99.90;;;;;;5004234;28;20060;-53
2021/01/16 05:50:55;;;;;;;12.45;6.40;;;-2.00;99.90;;;;;;4986994;28;20045;-50
2021/01/16 05:53:23;;;;;;;15.60;7.10;;;-2.00;99.90;;;;;;4986060;28;20455;-53
2021/01/16 05:55:49;;;;;;;17.42;7.60;;;-2.10;99.90;;;;;;4986747;28;20137;-51
2021/01/16 05:58:16;;;;;;;13.70;6.75;;;-2.10;99.90;;;;;;4986838;28;20464;-51
2021/01/16 06:00:47;;;;;;;13.13;6.00;;;-2.10;99.90;;;;;;5002981;28;20054;-53
2021/01/16 06:03:15;;;;;;;13.40;6.60;;;-2.00;99.90;;;;;;5006111;28;20044;-52
2021/01/16 06:05:49;;;;;;;13.35;6.68;;;-2.10;99.90;;;;;;5005796;28;20148;-50
2021/01/16 06:08:15;;;;;;;14.85;7.35;;;-2.10;99.90;;;;;;5002938;28;20077;-48
2021/01/16 06:10:42;;;;;;;13.65;6.78;;;-2.10;99.90;;;;;;5004223;28;20707;-52
2021/01/16 06:13:14;;;;;;;15.02;6.82;;;-2.20;99.90;;;;;;5005581;28;20825;-50
2021/01/16 06:15:45;;;;;;;12.82;6.13;;;-2.20;99.90;;;;;;5005922;28;20046;-48
2021/01/16 06:18:34;;;;;;;11.18;5.97;;;-2.10;99.90;;;;;;5005736;28;20050;-50
2021/01/16 06:21:00;;;;;;;13.68;6.22;;;-2.10;99.90;;;;;;4985778;28;20514;-49
2021/01/16 06:23:29;;;;;;;12.35;5.72;;;-2.20;99.90;;;;;;4986297;28;20049;-53
2021/01/16 06:25:56;;;;;;;13.57;6.25;;;-2.10;99.90;;;;;;4993237;28;20063;-51
2021/01/16 06:28:26;;;;;;;16.98;6.88;;;-2.10;99.90;;;;;;5003836;28;20055;-52
2021/01/16 06:30:54;;;;;;;15.70;6.45;;;-2.10;99.90;;;;;;5009661;28;20069;-52
2021/01/16 06:33:30;;;;;;;13.45;6.57;;;-2.00;99.90;;;;;;5026335;28;20044;-51
2021/01/16 06:36:04;;;;;;;11.82;5.88;;;-2.10;99.90;;;;;;5023328;28;20042;-54
2021/01/16 06:38:32;;;;;;;12.27;6.22;;;-2.10;99.90;;;;;;5002201;28;20099;-52
2021/01/16 06:41:16;;;;;;;11.20;6.65;;;-2.10;99.90;;;;;;5006057;28;20176;-49
2021/01/16 06:43:44;;;;;;;14.40;6.38;;;-2.10;99.90;;;;;;5005637;28;20124;-54
2021/01/16 06:46:12;;;;;;;11.73;5.82;;;-2.10;99.90;;;;;;5005078;28;20038;-51
2021/01/16 06:48:40;;;;;;;10.88;5.20;;;-2.10;99.90;;;;;;5006119;28;20624;-54
2021/01/16 06:51:09;;;;;;;13.30;6.47;;;-2.10;99.90;;;;;;5006844;28;20053;-49
2021/01/16 06:53:34;;;;;;;11.20;5.68;;;-2.10;99.90;;;;;;5007874;28;20509;-49
2021/01/16 06:56:05;;;;;;;10.38;5.43;;;-2.10;99.90;;;;;;5006319;28;20045;-49
2021/01/16 06:58:39;;;;;;;9.98;4.97;;;-2.00;99.90;;;;;;4993716;28;20046;-51
2021/01/16 07:01:10;;;;;;;16.98;5.80;;;-2.00;99.90;;;;;;5004978;28;20046;-56
2021/01/16 07:03:57;;;;;;;9.60;5.03;;;-2.00;99.90;;;;;;5010135;28;20077;-54
2021/01/16 07:06:22;;;;;;;12.73;6.15;;;-1.90;99.90;;;;;;5022552;23;20049;-52
2021/01/16 07:08:52;;;;;;;10.27;4.70;;;-2.00;99.90;;;;;;5018192;23;20046;-52
2021/01/16 07:11:18;;;;;;;10.18;5.57;;;-2.00;99.90;;;;;;4993646;28;20050;-57
2021/01/16 07:13:45;;;;;;;14.43;5.40;;;-2.00;99.90;;;;;;5011262;28;20048;-54
2021/01/16 07:16:12;;;;;;;11.05;4.85;;;-1.90;99.90;;;;;;5009917;28;20097;-52
2021/01/16 07:18:40;;;;;;;12.82;5.20;;;-1.90;99.90;;;;;;5009727;28;20041;-53
2021/01/16 07:21:07;;;;;;;12.05;5.55;;;-1.90;99.90;;;;;;5009837;28;20159;-51
2021/01/16 07:23:34;;;;;;;9.70;4.90;;;-1.90;99.90;;;;;;5026392;22;20053;-51
2021/01/16 07:26:00;;;;;;;9.68;5.13;;;-1.90;99.90;;;;;;5017592;28;20144;-56
2021/01/16 07:28:26;;;;;;;9.38;4.97;;;-1.90;99.90;;;;;;4998319;28;20081;-53
2021/01/16 07:30:52;;;;;;;9.38;5.35;;;-1.90;99.90;;;;;;4989076;28;20069;-54
2021/01/16 07:33:18;;;;;;;10.90;4.95;;;-1.90;99.90;;;;;;4989812;28;20038;-49
2021/01/16 07:35:50;;;;;;;9.27;4.85;;;-1.90;99.90;;;;;;4989223;28;20042;-50
2021/01/16 07:38:18;;;;;;;11.75;5.80;;;-1.80;99.90;;;;;;4993935;28;20098;-55
2021/01/16 07:40:46;;;;;;;10.82;5.20;;;-1.80;99.90;;;;;;4981260;28;20042;-54
2021/01/16 07:43:15;;;;;;;13.00;6.03;;;-1.80;99.90;;;;;;4990674;28;20061;-56
2021/01/16 07:45:50;;;;;;;10.32;4.72;;;-1.70;99.90;;;;;;4988241;28;20095;-56
2021/01/16 07:48:20;;;;;;;9.60;4.60;;;-1.70;99.90;;;;;;5016117;22;20074;-56
2021/01/16 07:50:51;;;;;;;10.43;4.72;;;-1.70;99.90;;;;;;5009453;28;20037;-55
2021/01/16 07:53:25;;;;;;;11.07;5.05;;;-1.70;99.90;;;;;;5009696;28;20129;-53
2021/01/16 07:56:01;;;;;;;10.90;5.55;;;-1.70;99.90;;;;;;5009031;28;20052;-56
2021/01/16 07:58:32;;;;;;;12.30;5.60;;;-1.70;99.90;;;;;;4992397;28;20121;-51
2021/01/16 08:01:02;;;;;;;9.85;4.95;;;-1.80;99.90;;;;;;5026686;23;20595;-52
2021/01/16 08:03:54;;;;;;;11.02;4.90;;;-1.70;99.90;;;;;;5046459;28;20044;-47
2021/01/16 08:06:52;;;;;;;15.57;5.22;;;-1.60;99.90;;;;;;5049148;28;20069;-54
2021/01/16 08:09:53;;;;;;;9.88;4.82;;;-1.60;99.90;;;;;;4993859;28;20041;-48
2021/01/16 08:12:20;;;;;;;8.95;4.40;;;-1.60;99.90;;;;;;5006700;28;20058;-50
2021/01/16 08:14:46;;;;;;;11.98;4.35;;;-1.50;99.90;;;;;;5008491;28;20487;-52
2021/01/16 08:17:17;;;;;;;10.52;4.20;;;-1.50;99.90;;;;;;5020676;28;20612;-54
2021/01/16 08:20:06;;;;;;;7.90;4.35;;;-1.50;99.90;;;;;;5020299;28;20117;-49
2021/01/16 08:22:40;;;;;;;9.32;4.97;;;-1.50;99.90;;;;;;5027652;28;20045;-51
2021/01/16 08:25:08;;;;;;;8.23;4.30;;;-1.50;99.90;;;;;;5028653;28;20121;-52
2021/01/16 08:27:47;;;;;;;9.00;4.22;;;-1.50;99.90;;;;;;5027492;28;20041;-54
2021/01/16 08:30:17;;;;;;;7.80;4.32;;;-1.50;99.90;;;;;;5008486;28;20474;-51
2021/01/16 08:33:06;;;;;;;12.32;4.95;;;-1.50;99.90;;;;;;5008335;28;20069;-54
2021/01/16 08:35:48;;;;;;;9.45;4.80;;;-1.50;99.90;;;;;;5007639;28;20030;-53
2021/01/16 08:38:16;;;;;;;10.93;5.00;;;-1.50;99.90;;;;;;5016174;28;20041;-53
2021/01/16 08:41:06;;;;;;;10.32;4.28;;;-1.40;99.90;;;;;;5027803;28;20120;-52
2021/01/16 08:43:35;;;;;;;6.95;4.18;;;-1.40;99.90;;;;;;5027359;28;20034;-50
2021/01/16 08:46:07;;;;;;;10.32;4.63;;;-1.30;99.90;;;;;;5026121;28;20577;-54
2021/01/16 08:48:33;;;;;;;9.07;4.60;;;-1.30;99.90;;;;;;5024853;28;20076;-53
2021/01/16 08:50:59;;;;;;;8.75;4.70;;;-1.20;99.90;;;;;;5026936;28;20146;-55
2021/01/16 08:53:25;;;;;;;9.93;4.75;;;-1.20;99.90;;;;;;5026742;28;20046;-50
2021/01/16 08:55:50;;;;;;;7.90;4.50;;;-1.10;99.90;;;;;;5027154;28;20064;-52
2021/01/16 08:58:16;;;;;;;9.80;4.70;;;-1.00;99.90;;;;;;5026585;28;20401;-55
2021/01/16 09:00:42;;;;;;;7.40;3.90;;;-1.00;99.90;;;;;;5013291;28;20041;-53
2021/01/16 09:03:19;;;;;;;9.32;4.82;;;-1.00;99.90;;;;;;5027472;28;20512;-55
2021/01/16 09:05:47;;;;;;;11.23;4.78;;;-1.00;99.90;;;;;;5027870;28;20061;-50
2021/01/16 09:08:24;;;;;;;10.45;4.78;;;-1.00;99.90;;;;;;5026803;28;20041;-53
2021/01/16 09:10:51;;;;;;;12.50;5.00;;;-1.00;99.90;;;;;;5021011;28;20045;-51
2021/01/16 09:13:30;;;;;;;12.23;4.80;;;-0.90;99.90;;;;;;5027162;28;20048;-53
2021/01/16 09:15:58;;;;;;;12.00;4.53;;;-0.90;99.90;;;;;;5007100;28;20096;-50
2021/01/16 09:18:25;;;;;;;9.52;4.38;;;-0.80;99.90;;;;;;5005024;28;20053;-51
2021/01/16 09:20:53;;;;;;;11.13;4.93;;;-0.80;99.90;;;;;;5007468;28;20041;-53
2021/01/16 09:23:19;;;;;;;11.23;5.28;;;-0.80;99.90;;;;;;5014793;28;20100;-51
2021/01/16 09:26:05;;;;;;;9.23;4.80;;;-0.70;99.90;;;;;;5026891;28;20037;-55
2021/01/16 09:28:40;;;;;;;14.73;4.97;;;-0.70;99.90;;;;;;5025870;28;20492;-54
2021/01/16 09:31:18;;;;;;;8.55;4.70;;;-0.70;99.90;;;;;;5011905;28;20071;-55
2021/01/16 09:33:45;;;;;;;10.25;4.97;;;-0.60;99.90;;;;;;5007240;28;20133;-53
2021/01/16 09:36:11;;;;;;;10.65;5.22;;;-0.60;99.90;;;;;;5006699;28;20095;-52
2021/01/16 09:38:38;;;;;;;9.90;4.97;;;-0.70;99.90;;;;;;5020675;28;20053;-50
2021/01/16 09:41:04;;;;;;;9.93;4.72;;;-0.70;99.90;;;;;;5026541;28;20045;-53
2021/01/16 09:43:44;;;;;;;11.05;5.13;;;-0.60;99.90;;;;;;5026540;28;20036;-52
2021/01/16 09:46:09;;;;;;;11.90;6.28;;;-0.40;99.90;;;;;;5016457;28;20063;-50
2021/01/16 09:48:41;;;;;;;12.52;5.25;;;-0.40;99.90;;;;;;5026065;28;20549;-55
2021/01/16 09:51:09;;;;;;;11.20;4.95;;;-0.30;99.90;;;;;;5026580;28;20037;-50
2021/01/16 09:53:35;;;;;;;9.52;5.18;;;-0.20;99.90;;;;;;5026347;28;20038;-53
2021/01/16 09:56:01;;;;;;;12.00;5.78;;;-0.10;99.90;;;;;;5016383;28;20045;-50
2021/01/16 09:58:31;;;;;;;9.45;4.80;;;-0.10;99.90;;;;;;5014838;28;20045;-53
2021/01/16 10:01:19;;;;;;;8.48;4.70;;;-0.10;99.90;;;;;;5022979;28;20038;-53
2021/01/16 10:03:46;;;;;;;8.90;4.63;;;-0.10;99.90;;;;;;5006441;28;20704;-51
2021/01/16 10:06:13;;;;;;;7.93;4.40;;;-0.10;99.90;;;;;;5005637;28;20037;-55
2021/01/16 10:08:40;;;;;;;9.88;4.93;;;0.00;99.90;;;;;;5018031;28;20128;-53
2021/01/16 10:11:06;;;;;;;9.32;4.65;;;0.10;99.90;;;;;;5025711;28;20233;-51
2021/01/16 10:13:37;;;;;;;8.05;4.18;;;0.10;99.90;;;;;;5025143;28;20124;-53
2021/01/16 10:16:11;;;;;;;11.35;4.55;;;-0.20;99.20;;;;;;5016517;28;20046;-55
2021/01/16 10:18:38;;;;;;;8.55;4.18;;;-0.10;99.60;;;;;;5005507;28;20068;-50
2021/01/16 10:21:08;;;;;;;7.97;4.50;;;0.00;99.80;;;;;;5006262;28;20132;-54
2021/01/16 10:23:44;;;;;;;10.20;4.75;;;0.00;99.30;;;;;;5018595;28;20074;-47
2021/01/16 10:26:13;;;;;;;9.02;4.57;;;-0.10;99.00;;;;;;5025349;28;20124;-53
2021/01/16 10:28:59;;;;;;;7.82;4.38;;;-0.10;99.10;;;;;;5025882;28;20067;-56
2021/01/16 10:31:26;;;;;;;8.65;3.67;;;-0.20;99.60;;;;;;5023918;28;20045;-61
2021/01/16 10:34:04;;;;;;;6.18;3.45;;;-0.20;99.90;;;;;;5024728;28;20730;-53
2021/01/16 10:36:31;;;;;;;9.57;4.05;;;-0.30;99.10;;;;;;5024745;28;20045;-58
2021/01/16 10:38:58;;;;;;;7.30;3.97;;;-0.20;99.20;;;;;;5024488;28;20042;-56
2021/01/16 10:41:32;;;;;;;8.88;4.43;;;-0.10;99.20;;;;;;5025273;28;20034;-58
2021/01/16 10:44:00;;;;;;;7.07;3.88;;;0.00;99.90;;;;;;5023096;28;20090;-55
2021/01/16 10:46:31;;;;;;;12.77;3.80;;;0.00;99.90;;;;;;5024334;28;20159;-56
2021/01/16 10:49:20;;;;;;;7.65;3.83;;;-0.10;99.10;;;;;;5024309;28;20046;-56
2021/01/16 10:51:50;;;;;;;7.35;3.63;;;0.10;99.30;;;;;;5024367;28;20485;-52
2021/01/16 10:54:16;;;;;;;7.38;4.10;;;0.10;98.80;;;;;;5025566;28;20041;-55
2021/01/16 10:57:01;;;;;;;7.32;3.58;;;0.20;99.30;;;;;;5018309;28;20095;-50
2021/01/16 10:59:27;;;;;;;6.65;3.60;;;0.20;98.80;;;;;;5004626;28;20034;-57
2021/01/16 11:01:53;;;;;;;18.83;9.52;;;0.10;98.60;;;;;;5004815;28;20045;-59
2021/01/16 11:04:37;;;;;;;30.75;13.55;;;0.00;99.00;;;;;;5005960;28;20034;-52
2021/01/16 11:07:03;;;;;;;16.60;7.90;;;-0.20;98.70;;;;;;5005717;28;20803;-56
2021/01/16 11:09:37;;;;;;;10.52;5.18;;;-0.30;99.10;;;;;;5024765;28;20059;-54
2021/01/16 11:12:05;;;;;;;8.60;3.83;;;-0.30;99.00;;;;;;5022280;28;20568;-51
2021/01/16 11:14:41;;;;;;;10.55;3.90;;;-0.10;98.90;;;;;;5025013;28;20941;-50
2021/01/16 11:17:11;;;;;;;9.90;4.72;;;0.10;99.50;;;;;;5023532;28;20041;-61
2021/01/16 11:19:42;;;;;;;6.50;3.65;;;0.20;99.50;;;;;;5024293;28;20046;-54
2021/01/16 11:22:15;;;;;;;6.68;3.60;;;0.30;99.00;;;;;;5025506;28;20493;-50
2021/01/16 11:24:53;;;;;;;6.57;3.00;;;0.20;98.40;;;;;;5006127;28;20126;-53
2021/01/16 11:27:23;;;;;;;5.15;2.88;;;0.30;98.90;;;;;;5023288;28;20045;-53
2021/01/16 11:29:49;;;;;;;4.07;2.22;;;0.40;98.50;;;;;;5025446;28;20049;-52
2021/01/16 11:32:16;;;;;;;5.40;2.55;;;0.40;98.20;;;;;;5022546;28;20056;-55
2021/01/16 11:35:09;;;;;;;6.00;2.50;;;0.10;97.20;;;;;;5024821;28;20041;-52
2021/01/16 11:37:52;;;;;;;4.85;2.70;;;0.00;98.50;;;;;;5023193;28;20072;-55
2021/01/16 11:40:28;;;;;;;5.35;2.67;;;0.10;98.30;;;;;;5025408;28;20046;-55
2021/01/16 11:42:55;;;;;;;;;;;0.10;98.50;;;;;;5026549;28;20049;-55
2021/01/16 11:45:22;;;;;;;8.20;2.55;;;0.20;97.80;;;;;;5025310;28;19916;-54
2021/01/16 11:47:54;;;;;;;6.07;2.70;;;0.10;97.30;;;;;;5029190;28;20080;-55
2021/01/16 11:50:20;;;;;;;7.03;3.20;;;0.10;98.20;;;;;;5037126;23;20048;-55
2021/01/16 11:52:47;;;;;;;7.88;3.72;;;0.10;97.60;;;;;;5044719;28;20072;-53
2021/01/16 11:55:13;;;;;;;10.50;5.65;;;0.10;98.20;;;;;;5048752;28;20079;-53
2021/01/16 11:57:41;;;;;;;6.25;3.78;;;0.20;98.60;;;;;;5051366;28;20787;-50
2021/01/16 12:00:08;;;;;;;8.00;3.67;;;0.30;98.50;;;;;;5065811;28;20496;-53
2021/01/16 12:02:34;;;;;;;4.95;3.42;;;0.20;97.90;;;;;;5055063;28;20041;-50
2021/01/16 12:04:59;;;;;;;9.70;3.50;;;0.30;98.50;;;;;;5060532;28;20058;-51
2021/01/16 12:07:28;;;;;;;7.63;3.80;;;0.30;98.50;;;;;;5064821;28;20040;-62
2021/01/16 12:09:56;;;;;;;9.88;4.10;;;0.30;98.20;;;;;;5060909;28;20484;-51
2021/01/16 12:12:30;;;;;;;8.68;3.90;;;0.40;98.10;;;;;;5067559;28;20081;-51
2021/01/16 12:14:56;;;;;;;10.73;4.40;;;0.40;97.70;;;;;;5068097;28;20037;-52
2021/01/16 12:17:22;;;;;;;7.47;3.97;;;0.30;97.80;;;;;;5049667;28;20086;-55
2021/01/16 12:19:50;;;;;;;9.90;4.57;;;0.30;98.20;;;;;;5059133;28;20400;-55
2021/01/16 12:22:20;;;;;;;7.93;4.05;;;0.30;98.10;;;;;;5067250;28;20041;-54
2021/01/16 12:24:47;;;;;;;7.35;4.28;;;0.20;98.20;;;;;;5050562;28;20036;-54
2021/01/16 12:27:13;;;;;;;10.32;4.22;;;0.00;98.00;;;;;;5054401;28;20089;-53
2021/01/16 12:29:44;;;;;;;10.98;4.55;;;0.00;98.80;;;;;;5066094;28;20044;-49
2021/01/16 12:32:14;;;;;;;9.65;4.60;;;-0.10;98.30;;;;;;5064500;28;20048;-51
2021/01/16 12:34:51;;;;;;;6.43;3.90;;;0.00;99.00;;;;;;5066878;28;20450;-54
2021/01/16 12:37:25;;;;;;;8.75;4.18;;;0.10;98.90;;;;;;5051815;28;20056;-53
2021/01/16 12:39:50;;;;;;;10.60;4.53;;;0.10;98.40;;;;;;5057097;28;20133;-53
2021/01/16 12:42:17;;;;;;;7.88;4.28;;;-0.10;98.00;;;;;;5047118;28;20946;-54
2021/01/16 12:44:42;;;;;;;7.72;4.20;;;-0.10;99.00;;;;;;5046205;28;20041;-52
2021/01/16 12:47:10;;;;;;;9.73;4.65;;;-0.10;99.10;;;;;;5052441;28;20056;-56
2021/01/16 12:49:36;;;;;;;10.85;4.80;;;-0.20;98.80;;;;;;5046492;28;20053;-53
2021/01/16 12:52:02;;;;;;;8.02;4.45;;;-0.20;98.80;;;;;;5045458;28;20048;-56